sensor_id;sensor_type;location;lat;lon;timestamp;temperature;humidity
37289;DHT22;23174;49.462;11.000;2023-10-13T00:00:31;18.10;99.90
37289;DHT22;23174;49.462;11.000;2023-10-13T00:02:36;18.10;99.90
37289;DHT22;23174;49.462;11.000;2023-10-13T00:04:37;18.10;99.90
37289;DHT22;23174;49.462;11.000;2023-10-13T00:06:38;18.10;99.90
37289;DHT22;23174;49.462;11.000;2023-10-13T00:08:38;18.10;99.90
37289;DHT22;23174;49.462;11.000;2023-10-13T00:10:39;18.10;99.90
37289;DHT22;23174;49.462;11.000;2023-10-13T00:12:40;18.00;99.90
37289;DHT22;23174;49.462;11.000;2023-10-13T00:14:49;18.10;99.90
37289;DHT22;23174;49.462;11.000;2023-10-13T00:16:51;18.10;99.90
37289;DHT22;23174;49.462;11.000;2023-10-13T00:19:04;18.10;99.90
37289;DHT22;23174;49.462;11.000;2023-10-13T00:21:06;18.00;99.90
37289;DHT22;23174;49.462;11.000;2023-10-13T00:23:12;18.10;99.90
37289;DHT22;23174;49.462;11.000;2023-10-13T00:25:13;18.10;99.90
37289;DHT22;23174;49.462;11.000;2023-10-13T00:27:21;18.10;99.90
37289;DHT22;23174;49.462;11.000;2023-10-13T00:29:31;18.10;99.90
37289;DHT22;23174;49.462;11.000;2023-10-13T00:31:39;18.10;99.90
37289;DHT22;23174;49.462;11.000;2023-10-13T00:33:43;18.10;99.90
37289;DHT22;23174;49.462;11.000;2023-10-13T00:35:46;18.00;99.90
37289;DHT22;23174;49.462;11.000;2023-10-13T00:37:47;18.00;99.90
37289;DHT22;23174;49.462;11.000;2023-10-13T00:39:48;18.00;99.90
37289;DHT22;23174;49.462;11.000;2023-10-13T00:41:56;18.00;99.90
37289;DHT22;23174;49.462;11.000;2023-10-13T00:44:06;18.00;99.90
37289;DHT22;23174;49.462;11.000;2023-10-13T00:46:07;18.00;99.90
37289;DHT22;23174;49.462;11.000;2023-10-13T00:48:08;17.90;99.90
37289;DHT22;23174;49.462;11.000;2023-10-13T00:50:11;18.00;99.90
37289;DHT22;23174;49.462;11.000;2023-10-13T00:52:16;18.00;99.90
37289;DHT22;23174;49.462;11.000;2023-10-13T00:54:19;18.00;99.90
37289;DHT22;23174;49.462;11.000;2023-10-13T00:56:27;18.00;99.90
37289;DHT22;23174;49.462;11.000;2023-10-13T00:58:28;18.00;99.90
37289;DHT22;23174;49.462;11.000;2023-10-13T01:00:30;18.00;99.90
37289;DHT22;23174;49.462;11.000;2023-10-13T01:02:30;18.00;99.90
37289;DHT22;23174;49.462;11.000;2023-10-13T01:04:40;18.10;99.90
37289;DHT22;23174;49.462;11.000;2023-10-13T01:06:40;18.00;99.90
37289;DHT22;23174;49.462;11.000;2023-10-13T01:08:41;18.00;99.90
37289;DHT22;23174;49.462;11.000;2023-10-13T01:10:44;18.10;99.90
37289;DHT22;23174;49.462;11.000;2023-10-13T01:12:45;18.10;99.90
37289;DHT22;23174;49.462;11.000;2023-10-13T01:14:52;18.00;99.90
37289;DHT22;23174;49.462;11.000;2023-10-13T01:16:53;18.00;99.90
37289;DHT22;23174;49.462;11.000;2023-10-13T01:18:55;18.00;99.90
37289;DHT22;23174;49.462;11.000;2023-10-13T01:20:59;18.00;99.90
37289;DHT22;23174;49.462;11.000;2023-10-13T01:23:07;18.10;99.90
37289;DHT22;23174;49.462;11.000;2023-10-13T01:25:10;18.10;99.90
37289;DHT22;23174;49.462;11.000;2023-10-13T01:27:13;18.10;99.90
37289;DHT22;23174;49.462;11.000;2023-10-13T01:29:20;18.10;99.90
37289;DHT22;23174;49.462;11.000;2023-10-13T01:31:26;18.00;99.90
37289;DHT22;23174;49.462;11.000;2023-10-13T01:33:31;18.00;99.90
37289;DHT22;23174;49.462;11.000;2023-10-13T01:35:33;18.00;99.90
37289;DHT22;23174;49.462;11.000;2023-10-13T01:37:42;18.10;99.90
37289;DHT22;23174;49.462;11.000;2023-10-13T01:39:42;18.10;99.90
37289;DHT22;23174;49.462;11.000;2023-10-13T01:41:47;18.10;99.90
37289;DHT22;23174;49.462;11.000;2023-10-13T01:43:55;18.10;99.90
37289;DHT22;23174;49.462;11.000;2023-10-13T01:45:57;18.00;99.90
37289;DHT22;23174;49.462;11.000;2023-10-13T01:47:58;18.10;99.90
37289;DHT22;23174;49.462;11.000;2023-10-13T01:49:58;18.10;99.90
37289;DHT22;23174;49.462;11.000;2023-10-13T01:52:07;18.00;99.90
37289;DHT22;23174;49.462;11.000;2023-10-13T01:54:08;18.10;99.90
37289;DHT22;23174;49.462;11.000;2023-10-13T01:56:12;18.10;99.90
37289;DHT22;23174;49.462;11.000;2023-10-13T01:58:15;18.10;99.90
37289;DHT22;23174;49.462;11.000;2023-10-13T02:00:15;18.00;99.90
37289;DHT22;23174;49.462;11.000;2023-10-13T02:02:20;18.10;99.90
37289;DHT22;23174;49.462;11.000;2023-10-13T02:04:29;18.00;99.90
37289;DHT22;23174;49.462;11.000;2023-10-13T02:06:36;18.00;99.90
37289;DHT22;23174;49.462;11.000;2023-10-13T02:08:37;17.90;99.90
37289;DHT22;23174;49.462;11.000;2023-10-13T02:10:40;18.00;99.90
37289;DHT22;23174;49.462;11.000;2023-10-13T02:12:43;18.00;99.90
37289;DHT22;23174;49.462;11.000;2023-10-13T02:14:43;18.00;99.90
37289;DHT22;23174;49.462;11.000;2023-10-13T02:16:45;18.10;99.90
37289;DHT22;23174;49.462;11.000;2023-10-13T02:18:50;18.00;99.90
37289;DHT22;23174;49.462;11.000;2023-10-13T02:20:55;18.00;99.90
37289;DHT22;23174;49.462;11.000;2023-10-13T02:22:56;18.00;99.90
37289;DHT22;23174;49.462;11.000;2023-10-13T02:24:57;17.90;99.90
37289;DHT22;23174;49.462;11.000;2023-10-13T02:27:07;17.90;99.90
37289;DHT22;23174;49.462;11.000;2023-10-13T02:29:13;17.90;99.90
37289;DHT22;23174;49.462;11.000;2023-10-13T02:31:14;17.90;99.90
37289;DHT22;23174;49.462;11.000;2023-10-13T02:33:15;17.90;99.90
37289;DHT22;23174;49.462;11.000;2023-10-13T02:35:21;17.90;99.90
37289;DHT22;23174;49.462;11.000;2023-10-13T02:37:30;17.90;99.90
37289;DHT22;23174;49.462;11.000;2023-10-13T02:39:30;17.90;99.90
37289;DHT22;23174;49.462;11.000;2023-10-13T02:41:36;17.90;99.90
37289;DHT22;23174;49.462;11.000;2023-10-13T02:43:37;17.90;99.90
37289;DHT22;23174;49.462;11.000;2023-10-13T02:45:38;17.80;99.90
37289;DHT22;23174;49.462;11.000;2023-10-13T02:47:38;17.90;99.90
37289;DHT22;23174;49.462;11.000;2023-10-13T02:49:39;17.90;99.90
37289;DHT22;23174;49.462;11.000;2023-10-13T02:51:43;17.90;99.90
37289;DHT22;23174;49.462;11.000;2023-10-13T02:53:45;17.90;99.90
37289;DHT22;23174;49.462;11.000;2023-10-13T02:55:51;17.80;99.90
37289;DHT22;23174;49.462;11.000;2023-10-13T02:57:52;17.90;99.90
37289;DHT22;23174;49.462;11.000;2023-10-13T02:59:56;17.90;99.90
37289;DHT22;23174;49.462;11.000;2023-10-13T03:01:57;17.90;99.90
37289;DHT22;23174;49.462;11.000;2023-10-13T03:03:57;18.00;99.90
37289;DHT22;23174;49.462;11.000;2023-10-13T03:05:59;18.00;99.90
37289;DHT22;23174;49.462;11.000;2023-10-13T03:08:01;17.90;99.90
37289;DHT22;23174;49.462;11.000;2023-10-13T03:10:05;17.90;99.90
37289;DHT22;23174;49.462;11.000;2023-10-13T03:12:11;18.00;99.90
37289;DHT22;23174;49.462;11.000;2023-10-13T03:14:12;18.00;99.90
37289;DHT22;23174;49.462;11.000;2023-10-13T03:16:31;18.00;99.90
37289;DHT22;23174;49.462;11.000;2023-10-13T03:18:31;18.00;99.90
37289;DHT22;23174;49.462;11.000;2023-10-13T03:20:38;18.00;99.90
37289;DHT22;23174;49.462;11.000;2023-10-13T03:22:42;18.00;99.90
37289;DHT22;23174;49.462;11.000;2023-10-13T03:24:46;18.00;99.90
37289;DHT22;23174;49.462;11.000;2023-10-13T03:26:47;18.00;99.90
37289;DHT22;23174;49.462;11.000;2023-10-13T03:28:52;17.90;99.90
37289;DHT22;23174;49.462;11.000;2023-10-13T03:30:54;17.90;99.90
37289;DHT22;23174;49.462;11.000;2023-10-13T03:32:54;17.80;99.90
37289;DHT22;23174;49.462;11.000;2023-10-13T03:34:56;17.80;99.90
37289;DHT22;23174;49.462;11.000;2023-10-13T03:36:59;17.70;99.90
37289;DHT22;23174;49.462;11.000;2023-10-13T03:39:00;17.70;99.90
37289;DHT22;23174;49.462;11.000;2023-10-13T03:41:00;17.80;99.90
37289;DHT22;23174;49.462;11.000;2023-10-13T03:43:08;17.90;99.90
37289;DHT22;23174;49.462;11.000;2023-10-13T03:45:11;17.90;99.90
37289;DHT22;23174;49.462;11.000;2023-10-13T03:47:12;17.80;99.90
37289;DHT22;23174;49.462;11.000;2023-10-13T03:49:26;17.80;99.90
37289;DHT22;23174;49.462;11.000;2023-10-13T03:51:29;17.90;99.90
37289;DHT22;23174;49.462;11.000;2023-10-13T03:53:34;17.80;99.90
37289;DHT22;23174;49.462;11.000;2023-10-13T03:55:35;17.80;99.90
37289;DHT22;23174;49.462;11.000;2023-10-13T03:57:35;17.70;99.90
37289;DHT22;23174;49.462;11.000;2023-10-13T03:59:38;17.70;99.90
37289;DHT22;23174;49.462;11.000;2023-10-13T04:01:40;17.70;99.90
37289;DHT22;23174;49.462;11.000;2023-10-13T04:03:44;17.60;99.90
37289;DHT22;23174;49.462;11.000;2023-10-13T04:05:57;17.60;99.90
37289;DHT22;23174;49.462;11.000;2023-10-13T04:08:06;17.60;99.90
37289;DHT22;23174;49.462;11.000;2023-10-13T04:10:25;17.60;99.90
37289;DHT22;23174;49.462;11.000;2023-10-13T04:12:44;17.60;99.90
37289;DHT22;23174;49.462;11.000;2023-10-13T04:15:04;17.60;99.90
37289;DHT22;23174;49.462;11.000;2023-10-13T04:17:04;17.60;99.90
37289;DHT22;23174;49.462;11.000;2023-10-13T04:19:14;17.60;99.90
37289;DHT22;23174;49.462;11.000;2023-10-13T04:21:23;17.50;99.90
37289;DHT22;23174;49.462;11.000;2023-10-13T04:23:38;17.50;99.90
37289;DHT22;23174;49.462;11.000;2023-10-13T04:25:59;17.50;99.90
37289;DHT22;23174;49.462;11.000;2023-10-13T04:28:15;17.50;99.90
37289;DHT22;23174;49.462;11.000;2023-10-13T04:30:36;17.50;99.90
37289;DHT22;23174;49.462;11.000;2023-10-13T04:32:52;17.50;99.90
37289;DHT22;23174;49.462;11.000;2023-10-13T04:35:13;17.50;99.90
37289;DHT22;23174;49.462;11.000;2023-10-13T04:37:13;17.50;99.90
37289;DHT22;23174;49.462;11.000;2023-10-13T04:39:29;17.60;99.90
37289;DHT22;23174;49.462;11.000;2023-10-13T04:41:37;17.50;99.90
37289;DHT22;23174;49.462;11.000;2023-10-13T04:44:04;17.50;99.90
37289;DHT22;23174;49.462;11.000;2023-10-13T04:46:05;17.60;99.90
37289;DHT22;23174;49.462;11.000;2023-10-13T04:48:25;17.60;99.90
37289;DHT22;23174;49.462;11.000;2023-10-13T04:50:26;17.60;99.90
37289;DHT22;23174;49.462;11.000;2023-10-13T04:52:35;17.70;99.90
37289;DHT22;23174;49.462;11.000;2023-10-13T04:54:51;17.70;99.90
37289;DHT22;23174;49.462;11.000;2023-10-13T04:56:54;17.70;99.90
37289;DHT22;23174;49.462;11.000;2023-10-13T04:59:23;17.60;99.90
37289;DHT22;23174;49.462;11.000;2023-10-13T05:01:37;17.60;99.90
37289;DHT22;23174;49.462;11.000;2023-10-13T05:03:56;17.60;99.90
37289;DHT22;23174;49.462;11.000;2023-10-13T05:06:21;17.60;99.90
37289;DHT22;23174;49.462;11.000;2023-10-13T05:09:00;17.70;99.90
37289;DHT22;23174;49.462;11.000;2023-10-13T05:11:19;17.80;99.90
37289;DHT22;23174;49.462;11.000;2023-10-13T05:13:38;17.70;99.90
37289;DHT22;23174;49.462;11.000;2023-10-13T05:15:57;17.70;99.90
37289;DHT22;23174;49.462;11.000;2023-10-13T05:18:16;17.70;99.90
37289;DHT22;23174;49.462;11.000;2023-10-13T05:20:35;17.60;99.90
37289;DHT22;23174;49.462;11.000;2023-10-13T05:22:54;17.60;99.90
37289;DHT22;23174;49.462;11.000;2023-10-13T05:25:13;17.60;99.90
37289;DHT22;23174;49.462;11.000;2023-10-13T05:27:33;17.60;99.90
37289;DHT22;23174;49.462;11.000;2023-10-13T05:29:51;17.60;99.90
37289;DHT22;23174;49.462;11.000;2023-10-13T05:32:10;17.60;99.90
37289;DHT22;23174;49.462;11.000;2023-10-13T05:34:29;17.70;99.90
37289;DHT22;23174;49.462;11.000;2023-10-13T05:36:48;17.50;99.90
37289;DHT22;23174;49.462;11.000;2023-10-13T05:39:08;16.90;99.90
37289;DHT22;23174;49.462;11.000;2023-10-13T05:41:27;16.70;99.90
37289;DHT22;23174;49.462;11.000;2023-10-13T05:43:46;16.70;99.90
37289;DHT22;23174;49.462;11.000;2023-10-13T05:46:05;16.70;99.90
37289;DHT22;23174;49.462;11.000;2023-10-13T05:48:25;16.80;99.90
37289;DHT22;23174;49.462;11.000;2023-10-13T05:50:43;16.70;99.90
37289;DHT22;23174;49.462;11.000;2023-10-13T05:53:02;16.60;99.90
37289;DHT22;23174;49.462;11.000;2023-10-13T05:55:11;16.60;99.90
37289;DHT22;23174;49.462;11.000;2023-10-13T05:57:30;16.60;99.90
37289;DHT22;23174;49.462;11.000;2023-10-13T05:59:49;16.60;99.90
37289;DHT22;23174;49.462;11.000;2023-10-13T06:02:08;16.60;99.90
37289;DHT22;23174;49.462;11.000;2023-10-13T06:04:27;16.60;99.90
37289;DHT22;23174;49.462;11.000;2023-10-13T06:06:46;16.60;99.90
37289;DHT22;23174;49.462;11.000;2023-10-13T06:09:05;16.50;99.90
37289;DHT22;23174;49.462;11.000;2023-10-13T06:11:24;16.60;99.90
37289;DHT22;23174;49.462;11.000;2023-10-13T06:13:43;16.60;99.90
37289;DHT22;23174;49.462;11.000;2023-10-13T06:16:14;16.50;99.90
37289;DHT22;23174;49.462;11.000;2023-10-13T06:18:33;16.50;99.90
37289;DHT22;23174;49.462;11.000;2023-10-13T06:20:52;16.50;99.90
37289;DHT22;23174;49.462;11.000;2023-10-13T06:23:11;16.50;99.90
37289;DHT22;23174;49.462;11.000;2023-10-13T06:25:30;16.60;99.90
37289;DHT22;23174;49.462;11.000;2023-10-13T06:27:49;16.50;99.90
37289;DHT22;23174;49.462;11.000;2023-10-13T06:30:08;16.80;99.90
37289;DHT22;23174;49.462;11.000;2023-10-13T06:32:09;17.60;99.90
37289;DHT22;23174;49.462;11.000;2023-10-13T06:34:12;17.60;99.90
37289;DHT22;23174;49.462;11.000;2023-10-13T06:36:16;17.10;99.90
37289;DHT22;23174;49.462;11.000;2023-10-13T06:38:17;16.90;99.90
37289;DHT22;23174;49.462;11.000;2023-10-13T06:40:21;16.90;99.90
37289;DHT22;23174;49.462;11.000;2023-10-13T06:42:28;16.80;99.90
37289;DHT22;23174;49.462;11.000;2023-10-13T06:44:29;16.90;99.90
37289;DHT22;23174;49.462;11.000;2023-10-13T06:46:32;16.80;99.90
37289;DHT22;23174;49.462;11.000;2023-10-13T06:48:34;16.70;99.90
37289;DHT22;23174;49.462;11.000;2023-10-13T06:50:35;16.70;99.90
37289;DHT22;23174;49.462;11.000;2023-10-13T06:52:42;16.70;99.90
37289;DHT22;23174;49.462;11.000;2023-10-13T06:54:43;16.70;99.90
37289;DHT22;23174;49.462;11.000;2023-10-13T06:56:44;16.90;99.90
37289;DHT22;23174;49.462;11.000;2023-10-13T06:58:45;16.90;99.90
37289;DHT22;23174;49.462;11.000;2023-10-13T07:00:47;16.90;99.90
37289;DHT22;23174;49.462;11.000;2023-10-13T07:02:53;16.90;99.90
37289;DHT22;23174;49.462;11.000;2023-10-13T07:04:54;16.80;99.90
37289;DHT22;23174;49.462;11.000;2023-10-13T07:07:07;16.60;99.90
37289;DHT22;23174;49.462;11.000;2023-10-13T07:09:10;16.60;99.90
37289;DHT22;23174;49.462;11.000;2023-10-13T07:11:28;16.70;99.90
37289;DHT22;23174;49.462;11.000;2023-10-13T07:13:38;16.70;99.90
37289;DHT22;23174;49.462;11.000;2023-10-13T07:15:40;16.70;99.90
37289;DHT22;23174;49.462;11.000;2023-10-13T07:17:48;16.70;99.90
37289;DHT22;23174;49.462;11.000;2023-10-13T07:19:55;16.70;99.90
37289;DHT22;23174;49.462;11.000;2023-10-13T07:22:28;16.80;99.90
37289;DHT22;23174;49.462;11.000;2023-10-13T07:24:29;16.80;99.90
37289;DHT22;23174;49.462;11.000;2023-10-13T07:26:35;16.90;99.90
37289;DHT22;23174;49.462;11.000;2023-10-13T07:28:36;16.80;99.90
37289;DHT22;23174;49.462;11.000;2023-10-13T07:30:38;16.90;99.90
37289;DHT22;23174;49.462;11.000;2023-10-13T07:33:08;16.90;99.90
37289;DHT22;23174;49.462;11.000;2023-10-13T07:35:15;17.00;99.90
37289;DHT22;23174;49.462;11.000;2023-10-13T07:37:18;17.10;99.90
37289;DHT22;23174;49.462;11.000;2023-10-13T07:39:19;17.10;99.90
37289;DHT22;23174;49.462;11.000;2023-10-13T07:41:26;17.30;99.90
37289;DHT22;23174;49.462;11.000;2023-10-13T07:43:30;17.20;99.90
37289;DHT22;23174;49.462;11.000;2023-10-13T07:45:33;17.20;99.90
37289;DHT22;23174;49.462;11.000;2023-10-13T07:47:36;17.30;99.90
37289;DHT22;23174;49.462;11.000;2023-10-13T07:49:39;17.30;99.90
37289;DHT22;23174;49.462;11.000;2023-10-13T07:51:40;17.40;99.90
37289;DHT22;23174;49.462;11.000;2023-10-13T07:53:49;17.40;99.90
37289;DHT22;23174;49.462;11.000;2023-10-13T07:55:51;17.50;99.90
37289;DHT22;23174;49.462;11.000;2023-10-13T07:58:02;17.60;99.90
37289;DHT22;23174;49.462;11.000;2023-10-13T08:00:08;17.60;99.90
37289;DHT22;23174;49.462;11.000;2023-10-13T08:02:11;17.70;99.90
37289;DHT22;23174;49.462;11.000;2023-10-13T08:04:12;17.70;99.90
37289;DHT22;23174;49.462;11.000;2023-10-13T08:06:16;17.70;99.90
37289;DHT22;23174;49.462;11.000;2023-10-13T08:08:16;17.80;99.90
37289;DHT22;23174;49.462;11.000;2023-10-13T08:10:17;17.90;99.90
37289;DHT22;23174;49.462;11.000;2023-10-13T08:12:17;18.00;99.90
37289;DHT22;23174;49.462;11.000;2023-10-13T08:14:21;18.20;99.90
37289;DHT22;23174;49.462;11.000;2023-10-13T08:16:30;18.10;99.90
37289;DHT22;23174;49.462;11.000;2023-10-13T08:18:45;18.20;99.90
37289;DHT22;23174;49.462;11.000;2023-10-13T08:20:49;18.20;99.90
37289;DHT22;23174;49.462;11.000;2023-10-13T08:22:52;18.10;99.90
37289;DHT22;23174;49.462;11.000;2023-10-13T08:25:13;18.10;99.90
37289;DHT22;23174;49.462;11.000;2023-10-13T08:27:36;18.20;99.90
37289;DHT22;23174;49.462;11.000;2023-10-13T08:29:49;18.20;99.90
37289;DHT22;23174;49.462;11.000;2023-10-13T08:31:56;18.20;99.90
37289;DHT22;23174;49.462;11.000;2023-10-13T08:34:15;18.20;99.90
37289;DHT22;23174;49.462;11.000;2023-10-13T08:36:23;18.20;99.90
37289;DHT22;23174;49.462;11.000;2023-10-13T08:38:31;18.30;99.90
37289;DHT22;23174;49.462;11.000;2023-10-13T08:40:44;18.40;99.90
37289;DHT22;23174;49.462;11.000;2023-10-13T08:43:17;18.40;99.90
37289;DHT22;23174;49.462;11.000;2023-10-13T08:45:19;18.50;99.90
37289;DHT22;23174;49.462;11.000;2023-10-13T08:47:26;18.50;99.90
37289;DHT22;23174;49.462;11.000;2023-10-13T08:49:36;18.60;99.90
37289;DHT22;23174;49.462;11.000;2023-10-13T08:51:41;18.80;99.90
37289;DHT22;23174;49.462;11.000;2023-10-13T08:53:44;19.10;99.90
37289;DHT22;23174;49.462;11.000;2023-10-13T08:55:47;19.30;99.90
37289;DHT22;23174;49.462;11.000;2023-10-13T08:58:04;19.40;99.90
37289;DHT22;23174;49.462;11.000;2023-10-13T09:00:14;19.50;99.90
37289;DHT22;23174;49.462;11.000;2023-10-13T09:02:28;19.60;99.90
37289;DHT22;23174;49.462;11.000;2023-10-13T09:04:49;19.70;99.90
37289;DHT22;23174;49.462;11.000;2023-10-13T09:07:10;19.80;99.90
37289;DHT22;23174;49.462;11.000;2023-10-13T09:09:15;19.70;99.90
37289;DHT22;23174;49.462;11.000;2023-10-13T09:11:34;19.80;99.90
37289;DHT22;23174;49.462;11.000;2023-10-13T09:13:49;19.80;99.90
37289;DHT22;23174;49.462;11.000;2023-10-13T09:15:52;19.90;99.90
37289;DHT22;23174;49.462;11.000;2023-10-13T09:18:01;19.90;99.90
37289;DHT22;23174;49.462;11.000;2023-10-13T09:20:16;19.80;99.90
37289;DHT22;23174;49.462;11.000;2023-10-13T09:22:26;19.80;99.90
37289;DHT22;23174;49.462;11.000;2023-10-13T09:24:28;19.80;99.90
37289;DHT22;23174;49.462;11.000;2023-10-13T09:26:34;19.90;99.90
37289;DHT22;23174;49.462;11.000;2023-10-13T09:28:36;20.00;99.90
37289;DHT22;23174;49.462;11.000;2023-10-13T09:30:47;20.10;99.90
37289;DHT22;23174;49.462;11.000;2023-10-13T09:33:02;20.20;99.90
37289;DHT22;23174;49.462;11.000;2023-10-13T09:35:07;20.30;99.90
37289;DHT22;23174;49.462;11.000;2023-10-13T09:37:14;20.30;99.90
37289;DHT22;23174;49.462;11.000;2023-10-13T09:39:29;20.40;99.90
37289;DHT22;23174;49.462;11.000;2023-10-13T09:41:30;20.50;99.90
37289;DHT22;23174;49.462;11.000;2023-10-13T09:43:32;20.60;99.90
37289;DHT22;23174;49.462;11.000;2023-10-13T09:45:34;20.60;99.90
37289;DHT22;23174;49.462;11.000;2023-10-13T09:47:44;20.70;99.90
37289;DHT22;23174;49.462;11.000;2023-10-13T09:49:48;20.70;99.90
37289;DHT22;23174;49.462;11.000;2023-10-13T09:51:49;20.80;99.90
37289;DHT22;23174;49.462;11.000;2023-10-13T09:54:09;20.80;99.90
37289;DHT22;23174;49.462;11.000;2023-10-13T09:56:18;21.00;99.90
37289;DHT22;23174;49.462;11.000;2023-10-13T09:58:21;21.30;99.90
37289;DHT22;23174;49.462;11.000;2023-10-13T10:00:29;21.40;99.90
37289;DHT22;23174;49.462;11.000;2023-10-13T10:02:35;21.50;99.90
37289;DHT22;23174;49.462;11.000;2023-10-13T10:04:54;21.60;99.90
37289;DHT22;23174;49.462;11.000;2023-10-13T10:06:57;21.60;99.90
37289;DHT22;23174;49.462;11.000;2023-10-13T10:09:07;21.50;99.90
37289;DHT22;23174;49.462;11.000;2023-10-13T10:11:58;21.50;99.90
37289;DHT22;23174;49.462;11.000;2023-10-13T10:14:07;21.60;99.90
37289;DHT22;23174;49.462;11.000;2023-10-13T10:16:11;21.70;99.90
37289;DHT22;23174;49.462;11.000;2023-10-13T10:18:19;21.80;99.90
37289;DHT22;23174;49.462;11.000;2023-10-13T10:20:32;21.80;99.90
37289;DHT22;23174;49.462;11.000;2023-10-13T10:22:41;21.80;99.90
37289;DHT22;23174;49.462;11.000;2023-10-13T10:24:58;21.90;99.90
37289;DHT22;23174;49.462;11.000;2023-10-13T10:26:59;21.90;99.90
37289;DHT22;23174;49.462;11.000;2023-10-13T10:29:10;22.00;99.90
37289;DHT22;23174;49.462;11.000;2023-10-13T10:31:11;22.00;99.90
37289;DHT22;23174;49.462;11.000;2023-10-13T10:33:17;22.00;99.90
37289;DHT22;23174;49.462;11.000;2023-10-13T10:35:23;22.20;99.90
37289;DHT22;23174;49.462;11.000;2023-10-13T10:37:32;22.20;99.90
37289;DHT22;23174;49.462;11.000;2023-10-13T10:39:35;22.20;99.90
37289;DHT22;23174;49.462;11.000;2023-10-13T10:41:45;22.30;99.90
37289;DHT22;23174;49.462;11.000;2023-10-13T10:43:51;22.30;99.90
37289;DHT22;23174;49.462;11.000;2023-10-13T10:45:53;22.30;99.90
37289;DHT22;23174;49.462;11.000;2023-10-13T10:47:59;22.50;99.90
37289;DHT22;23174;49.462;11.000;2023-10-13T10:50:08;22.70;99.90
37289;DHT22;23174;49.462;11.000;2023-10-13T10:52:19;22.60;99.90
37289;DHT22;23174;49.462;11.000;2023-10-13T10:54:20;22.60;99.90
37289;DHT22;23174;49.462;11.000;2023-10-13T10:56:25;22.70;99.90
37289;DHT22;23174;49.462;11.000;2023-10-13T10:58:35;22.60;99.90
37289;DHT22;23174;49.462;11.000;2023-10-13T11:00:44;22.80;99.90
37289;DHT22;23174;49.462;11.000;2023-10-13T11:02:54;23.00;99.90
37289;DHT22;23174;49.462;11.000;2023-10-13T11:04:55;23.30;99.90
37289;DHT22;23174;49.462;11.000;2023-10-13T11:06:58;23.60;99.90
37289;DHT22;23174;49.462;11.000;2023-10-13T11:09:05;23.60;99.90
37289;DHT22;23174;49.462;11.000;2023-10-13T11:11:31;23.70;99.90
37289;DHT22;23174;49.462;11.000;2023-10-13T11:13:44;23.60;99.90
37289;DHT22;23174;49.462;11.000;2023-10-13T11:16:23;23.80;99.90
37289;DHT22;23174;49.462;11.000;2023-10-13T11:18:34;23.80;99.90
37289;DHT22;23174;49.462;11.000;2023-10-13T11:20:42;23.90;99.90
37289;DHT22;23174;49.462;11.000;2023-10-13T11:22:49;23.90;99.90
37289;DHT22;23174;49.462;11.000;2023-10-13T11:24:50;23.90;99.90
37289;DHT22;23174;49.462;11.000;2023-10-13T11:26:50;23.90;99.90
37289;DHT22;23174;49.462;11.000;2023-10-13T11:28:55;23.90;99.90
37289;DHT22;23174;49.462;11.000;2023-10-13T11:30:56;24.00;99.90
37289;DHT22;23174;49.462;11.000;2023-10-13T11:33:04;24.00;99.90
37289;DHT22;23174;49.462;11.000;2023-10-13T11:35:09;24.00;99.90
37289;DHT22;23174;49.462;11.000;2023-10-13T11:37:22;24.00;99.90
37289;DHT22;23174;49.462;11.000;2023-10-13T11:39:28;24.00;99.90
37289;DHT22;23174;49.462;11.000;2023-10-13T11:41:34;24.00;99.90
37289;DHT22;23174;49.462;11.000;2023-10-13T11:43:39;24.10;99.90
37289;DHT22;23174;49.462;11.000;2023-10-13T11:45:48;24.20;99.90
37289;DHT22;23174;49.462;11.000;2023-10-13T11:48:14;24.30;99.90
37289;DHT22;23174;49.462;11.000;2023-10-13T11:50:16;24.40;99.90
37289;DHT22;23174;49.462;11.000;2023-10-13T11:52:32;24.20;99.90
37289;DHT22;23174;49.462;11.000;2023-10-13T11:54:33;24.30;99.90
37289;DHT22;23174;49.462;11.000;2023-10-13T11:56:36;24.40;99.90
37289;DHT22;23174;49.462;11.000;2023-10-13T11:58:40;24.40;99.90
37289;DHT22;23174;49.462;11.000;2023-10-13T12:00:40;24.40;99.70
37289;DHT22;23174;49.462;11.000;2023-10-13T12:03:00;24.40;99.90
37289;DHT22;23174;49.462;11.000;2023-10-13T12:05:19;24.40;99.50
37289;DHT22;23174;49.462;11.000;2023-10-13T12:07:27;24.40;99.50
37289;DHT22;23174;49.462;11.000;2023-10-13T12:09:47;24.40;99.00
37289;DHT22;23174;49.462;11.000;2023-10-13T12:11:56;24.40;99.60
37289;DHT22;23174;49.462;11.000;2023-10-13T12:14:00;24.50;99.10
37289;DHT22;23174;49.462;11.000;2023-10-13T12:16:12;24.50;98.70
37289;DHT22;23174;49.462;11.000;2023-10-13T12:18:13;24.40;99.10
37289;DHT22;23174;49.462;11.000;2023-10-13T12:20:15;24.50;98.90
37289;DHT22;23174;49.462;11.000;2023-10-13T12:22:25;24.50;99.20
37289;DHT22;23174;49.462;11.000;2023-10-13T12:24:28;24.70;99.00
37289;DHT22;23174;49.462;11.000;2023-10-13T12:26:51;24.70;99.60
37289;DHT22;23174;49.462;11.000;2023-10-13T12:28:55;24.60;99.20
37289;DHT22;23174;49.462;11.000;2023-10-13T12:31:06;24.70;99.60
37289;DHT22;23174;49.462;11.000;2023-10-13T12:33:08;24.70;99.50
37289;DHT22;23174;49.462;11.000;2023-10-13T12:35:12;24.60;98.90
37289;DHT22;23174;49.462;11.000;2023-10-13T12:37:12;24.60;98.90
37289;DHT22;23174;49.462;11.000;2023-10-13T12:39:33;24.50;99.10
37289;DHT22;23174;49.462;11.000;2023-10-13T12:41:52;24.40;99.40
37289;DHT22;23174;49.462;11.000;2023-10-13T12:44:11;24.40;99.50
37289;DHT22;23174;49.462;11.000;2023-10-13T12:46:30;24.30;98.90
37289;DHT22;23174;49.462;11.000;2023-10-13T12:48:49;24.20;99.10
37289;DHT22;23174;49.462;11.000;2023-10-13T12:51:04;24.20;99.40
37289;DHT22;23174;49.462;11.000;2023-10-13T12:53:19;24.30;99.80
37289;DHT22;23174;49.462;11.000;2023-10-13T12:55:20;24.40;99.90
37289;DHT22;23174;49.462;11.000;2023-10-13T12:57:25;24.40;99.70
37289;DHT22;23174;49.462;11.000;2023-10-13T12:59:26;24.40;99.70
37289;DHT22;23174;49.462;11.000;2023-10-13T13:01:27;24.40;99.60
37289;DHT22;23174;49.462;11.000;2023-10-13T13:03:34;24.40;99.90
37289;DHT22;23174;49.462;11.000;2023-10-13T13:05:35;24.40;99.90
37289;DHT22;23174;49.462;11.000;2023-10-13T13:07:44;24.30;99.20
37289;DHT22;23174;49.462;11.000;2023-10-13T13:09:52;24.40;99.80
37289;DHT22;23174;49.462;11.000;2023-10-13T13:11:56;24.50;99.20
37289;DHT22;23174;49.462;11.000;2023-10-13T13:13:59;24.50;98.50
37289;DHT22;23174;49.462;11.000;2023-10-13T13:16:00;24.30;99.10